Perseus Leader — 3FBO9 — position and weather

sailwx.info

Track history (hours):
 
Tides and Currents Weather Stations Pressure Air Temp Water Temp Dewpoint Dewpoint Depression Visibility Wind Speed Wind Dir Waves Ship Positions

Perseus Leader

Last reported at 2018-Jul-15 20:43 UTC. Time now 2018-Jul-16 12:38 UTC.
Position N 37°33' W 009°46'.

Length 200 m; draft 7.9 m.

Type: Cargo ship. MMSI: 357170000.

Date/timePositionNaut miles runAvg speedWind from/ knotsBaromVisibWave heightAir tempDewpointWater temp
2018-Jul-15 20:43N 37°33' W 009°46'1216.8
2018-Jul-15 20:00N 37°45' W 009°50'1016.2
2018-Jul-15 19:22N 37°55' W 009°52'716.3
2018-Jul-15 18:55N 38°02' W 009°54'715.9
2018-Jul-15 18:29N 38°09' W 009°56'815.6
2018-Jul-15 18:01N 38°16' W 009°59'815.8
2018-Jul-15 17:30N 38°24' W 010°01'815.9
2018-Jul-15 17:00N 38°32' W 010°03'816.2
2018-Jul-15 16:29N 38°40' W 010°06'715.7
2018-Jul-15 16:00N 38°47' W 010°06'815.8
2018-Jul-15 15:30N 38°55' W 010°06'815.4
2018-Jul-15 15:00N 39°03' W 010°06'815.2
2018-Jul-15 14:30N 39°11' W 010°05'815.7
2018-Jul-15 14:00N 39°19' W 010°06'915.7
2018-Jul-15 13:27N 39°27' W 010°06'27915.5
2018-Jul-14 19:30N 44°05' W 009°31'815.9
2018-Jul-14 19:00N 44°12' W 009°25'816.0
2018-Jul-14 18:31N 44°19' W 009°20'1315.8
2018-Jul-14 17:40N 44°31' W 009°11'215.9
2018-Jul-14 17:30N 44°33' W 009°10'815.7
2018-Jul-14 17:00N 44°40' W 009°04'815.5
2018-Jul-14 16:30N 44°47' W 008°59'1215.8
2018-Jul-14 15:43N 44°58' W 008°51'316.1
2018-Jul-14 15:30N 45°01' W 008°49'13416.1
2018-Jul-14 07:11N 46°59' W 007°18'1515.8
2018-Jul-14 06:13N 47°13' W 007°07'315.7
2018-Jul-14 06:00N 47°16' W 007°05'815.6
2018-Jul-14 05:30N 47°22' W 006°60'815.3
2018-Jul-14 05:01N 47°29' W 006°55'1815.1
2018-Jul-14 03:48N 47°45' W 006°41'514.1
2018-Jul-14 03:25N 47°50' W 006°38'614.7
2018-Jul-14 03:00N 47°55' W 006°33'714.2
2018-Jul-14 02:30N 48°02' W 006°28'814.5
2018-Jul-14 01:58N 48°08' W 006°23'714.7
2018-Jul-14 01:28N 48°15' W 006°18'815.1
2018-Jul-14 00:56N 48°22' W 006°12'715.5
2018-Jul-14 00:31N 48°28' W 006°08'816.0
2018-Jul-13 23:59N 48°35' W 006°02'816.7
2018-Jul-13 23:30N 48°42' W 005°56'817.1
2018-Jul-13 23:01N 48°50' W 005°50'917.0
2018-Jul-13 22:30N 48°56' W 005°42'917.8
2018-Jul-13 22:00N 49°01' W 005°30'917.3
2018-Jul-13 21:30N 49°05' W 005°18'915.0
2018-Jul-13 20:56N 49°09' W 005°07'716.0
2018-Jul-13 20:31N 49°12' W 004°58'816.6
2018-Jul-13 20:01N 49°16' W 004°46'815.9
2018-Jul-13 19:31N 49°20' W 004°36'915.5
2018-Jul-13 18:57N 49°25' W 004°24'714.8
2018-Jul-13 18:30N 49°28' W 004°16'1514.4
2018-Jul-13 17:26N 49°36' W 003°55'614.4
2018-Jul-13 17:00N 49°39' W 003°47'714.7
2018-Jul-13 16:30N 49°43' W 003°38'815.4
2018-Jul-13 16:00N 49°47' W 003°28'816.4
2018-Jul-13 15:30N 49°51' W 003°17'917.0
2018-Jul-13 15:00N 49°55' W 003°05'917.8
2018-Jul-13 14:30N 49°58' W 002°51'1918.8
2018-Jul-13 13:31N 50°04' W 002°24'1019.6
2018-Jul-13 13:00N 50°07' W 002°10'1219.1
2018-Jul-13 12:22N 50°11' W 001°51'718.3
2018-Jul-13 12:00N 50°12' W 001°41'917.5
2018-Jul-13 11:31N 50°15' W 001°28'816.4
2018-Jul-13 11:01N 50°16' W 001°16'815.6
2018-Jul-13 10:30N 50°18' W 001°04'714.4
2018-Jul-13 10:00N 50°21' W 000°53'713.3
2018-Jul-13 09:30N 50°22' W 000°43'713.0
2018-Jul-13 09:00N 50°24' W 000°33'713.1
2018-Jul-13 08:30N 50°26' W 000°23'713.5
2018-Jul-13 08:00N 50°27' W 000°13'714.0
2018-Jul-13 07:30N 50°29' W 000°02'714.5
2018-Jul-13 07:00N 50°31' E 000°09'815.2
2018-Jul-13 06:30N 50°33' E 000°20'816.6
2018-Jul-13 06:00N 50°36' E 000°33'917.5
2018-Jul-13 05:30N 50°40' E 000°44'917.7
2018-Jul-13 05:00N 50°45' E 000°56'917.7
2018-Jul-13 04:30N 50°50' E 001°08'917.5
2018-Jul-13 04:00N 50°55' E 001°18'917.2
2018-Jul-13 03:30N 51°02' E 001°27'815.7
2018-Jul-13 03:00N 51°08' E 001°36'714.7
2018-Jul-13 02:30N 51°13' E 001°44'714.4
2018-Jul-13 02:00N 51°18' E 001°51'714.1
2018-Jul-13 01:30N 51°24' E 001°57'713.3
2018-Jul-13 01:01N 51°23' E 002°08'714.6
2018-Jul-13 00:30N 51°21' E 002°19'713.9
2018-Jul-13 00:00N 51°23' E 002°29'611.8
2018-Jul-12 23:30N 51°27' E 002°37'2 3.2
2018-Jul-12 22:59N 51°26' E 002°39'0 0.1
2018-Jul-12 22:29N 51°26' E 002°39'0 0.0
2018-Jul-12 21:59N 51°26' E 002°39'0 0.0
2018-Jul-12 21:26N 51°26' E 002°39'0 0.0
2018-Jul-12 20:59N 51°26' E 002°39'0 0.0
2018-Jul-12 20:29N 51°26' E 002°39'0 0.0
2018-Jul-12 19:59N 51°26' E 002°39'0 0.0
2018-Jul-12 19:29N 51°26' E 002°39'0 0.0
2018-Jul-12 18:59N 51°26' E 002°39'0 0.0
2018-Jul-12 18:29N 51°26' E 002°39'0 0.0
2018-Jul-12 17:59N 51°26' E 002°39'0 0.0
2018-Jul-12 17:29N 51°26' E 002°39'0 0.0
2018-Jul-12 16:59N 51°26' E 002°39'0 0.0
2018-Jul-12 16:29N 51°26' E 002°39'0 0.0
2018-Jul-12 15:59N 51°26' E 002°39'0 0.1
2018-Jul-12 15:29N 51°26' E 002°39'0 0.2
2018-Jul-12 14:59N 51°26' E 002°39'0 0.0
2018-Jul-12 14:29N 51°26' E 002°39'0 0.0
2018-Jul-12 13:59N 51°26' E 002°39'0 0.0
2018-Jul-12 13:26N 51°26' E 002°39'0 0.0
2018-Jul-12 12:59N 51°26' E 002°39'0 0.0
2018-Jul-12 12:29N 51°26' E 002°39'0 0.0
2018-Jul-12 11:59N 51°26' E 002°39'0 0.2
2018-Jul-12 11:26N 51°26' E 002°39'0 0.2
2018-Jul-12 10:59N 51°26' E 002°39'0 0.1
2018-Jul-12 10:31N 51°26' E 002°39'0 0.1
2018-Jul-12 10:00N 51°26' E 002°39'0 0.0
2018-Jul-12 09:30N 51°26' E 002°39'0 0.1
2018-Jul-12 09:00N 51°26' E 002°39'0 0.0
2018-Jul-12 08:30N 51°26' E 002°39'0 0.0
2018-Jul-12 08:00N 51°26' E 002°39'0 0.0
2018-Jul-12 07:29N 51°26' E 002°39'0 0.0
2018-Jul-12 07:00N 51°26' E 002°39'0 0.0
2018-Jul-12 06:30N 51°26' E 002°39'0 0.2
2018-Jul-12 06:01N 51°26' E 002°39'3 6.3
2018-Jul-12 05:31N 51°23' E 002°42'510.5
2018-Jul-12 05:00N 51°22' E 002°50'713.9
2018-Jul-12 04:31N 51°24' E 003°01'714.4
2018-Jul-12 04:00N 51°24' E 003°12'817.2
2018-Jul-12 03:31N 51°25' E 003°26'611.7
2018-Jul-12 03:00N 51°26' E 003°35'5 9.4
2018-Jul-12 02:30N 51°25' E 003°42'611.4
2018-Jul-12 02:01N 51°21' E 003°49'612.3
2018-Jul-12 01:31N 51°24' E 003°57'3 6.1
2018-Jul-12 01:01N 51°24' E 004°02'5 9.2
2018-Jul-12 00:31N 51°23' E 004°09'4 7.6
2018-Jul-12 00:01N 51°21' E 004°15'4 7.4
2018-Jul-11 23:31N 51°18' E 004°16'1 1.6
2018-Jul-11 22:57N 51°17' E 004°15'0 0.0
2018-Jul-11 22:30N 51°17' E 004°15'0 0.2
2018-Jul-11 22:00N 51°17' E 004°15'1 2.0
2018-Jul-11 21:29N 51°16' E 004°13'0 0.0
2018-Jul-11 20:59N 51°16' E 004°13'0 0.0
2018-Jul-11 20:29N 51°16' E 004°13'0 0.0
2018-Jul-11 19:59N 51°16' E 004°13'0 0.0
2018-Jul-11 19:29N 51°16' E 004°13'0 0.0
2018-Jul-11 18:59N 51°16' E 004°13'0 0.0
2018-Jul-11 18:29N 51°16' E 004°13'0 0.0
2018-Jul-11 17:59N 51°16' E 004°13'0 0.0
2018-Jul-11 17:29N 51°16' E 004°13'0 0.0
2018-Jul-11 16:59N 51°16' E 004°13'0 0.0
2018-Jul-11 16:29N 51°16' E 004°13'0 0.0
2018-Jul-11 15:59N 51°16' E 004°13'0 0.0
2018-Jul-11 15:29N 51°16' E 004°13'0 0.0
2018-Jul-11 14:59N 51°16' E 004°13'0 0.0
2018-Jul-11 14:26N 51°16' E 004°13'0 0.0
2018-Jul-11 13:59N 51°16' E 004°13'0 0.0
2018-Jul-11 13:26N 51°16' E 004°13'0 0.0
2018-Jul-11 12:59N 51°16' E 004°13'0 0.0
2018-Jul-11 12:29N 51°16' E 004°13'0 0.1
2018-Jul-11 12:00N 51°16' E 004°13'2 3.5
2018-Jul-11 11:31N 51°16' E 004°16'0 0.8
2018-Jul-11 11:00N 51°16' E 004°17'0 0.0
2018-Jul-11 10:30N 51°16' E 004°17'1 1.1
2018-Jul-11 10:00N 51°16' E 004°17'2 3.5
2018-Jul-11 09:30N 51°18' E 004°18'5 9.4
2018-Jul-11 09:00N 51°21' E 004°14'4 8.6
2018-Jul-11 08:30N 51°22' E 004°07'611.3
2018-Jul-11 08:00N 51°26' E 004°01'611.6
2018-Jul-11 07:30N 51°22' E 003°54'611.2
2018-Jul-11 07:00N 51°22' E 003°45'611.3
2018-Jul-11 06:30N 51°26' E 003°40'5 9.7
2018-Jul-11 06:00N 51°25' E 003°32'5 9.4
2018-Jul-11 05:30N 51°25' E 003°25'713.6
2018-Jul-11 05:00N 51°24' E 003°14'713.5
2018-Jul-11 04:30N 51°24' E 003°03'5 9.1
2018-Jul-11 04:00N 51°29' E 003°02'816.0
2018-Jul-11 03:30N 51°35' E 003°10'714.6
2018-Jul-11 03:00N 51°43' E 003°13'4 7.8
2018-Jul-11 02:30N 51°46' E 003°11'713.1
2018-Jul-11 02:00N 51°51' E 003°04'1116.2
2018-Jul-11 01:19N 51°51' E 002°46'515.8
2018-Jul-11 01:00N 51°54' E 002°40'914.6
2018-Jul-11 00:22N 52°03' E 002°38'1315.0
2018-Jul-10 23:29N 52°17' E 002°38'1015.4
2018-Jul-10 22:49N 52°27' E 002°37'515.8
2018-Jul-10 22:29N 52°32' E 002°37'815.8
2018-Jul-10 22:01N 52°40' E 002°37'816.2
2018-Jul-10 21:30N 52°48' E 002°38'916.7
2018-Jul-10 20:59N 52°56' E 002°38'1016.7
2018-Jul-10 20:24N 53°06' E 002°39'11614.6
2018-Jul-10 12:27N 54°37' E 000°37'715.9
2018-Jul-10 12:01N 54°41' E 000°27'815.7
2018-Jul-10 11:30N 54°43' E 000°14'815.5
2018-Jul-10 11:00N 54°46' E 000°02'815.5
2018-Jul-10 10:31N 54°49' W 000°11'815.4
2018-Jul-10 10:01N 54°52' W 000°24'2315.0
2018-Jul-10 08:27N 54°60' W 001°02'614.5
2018-Jul-10 08:00N 55°01' W 001°13'510.6
2018-Jul-10 07:30N 55°01' W 001°22'3 5.9
2018-Jul-10 07:00N 54°60' W 001°27'1 1.2
2018-Jul-10 06:21N 54°59' W 001°28'0 0.0
2018-Jul-10 06:00N 54°59' W 001°28'0 0.0
2018-Jul-10 05:30N 54°59' W 001°28'0 0.0
2018-Jul-10 05:00N 54°59' W 001°28'0 0.0
2018-Jul-10 04:30N 54°59' W 001°28'0 0.0
2018-Jul-10 03:57N 54°59' W 001°28'0 0.0
2018-Jul-10 03:30N 54°59' W 001°28'0 0.0
2018-Jul-10 03:00N 54°59' W 001°28'0 0.0
2018-Jul-10 02:27N 54°59' W 001°28'0 0.0
2018-Jul-10 02:00N 54°59' W 001°28'0 0.0
2018-Jul-10 01:30N 54°59' W 001°28'0 0.0
2018-Jul-10 01:00N 54°59' W 001°28'0 0.0
2018-Jul-10 00:00N 54°59' W 001°28'0 0.0
2018-Jul-09 23:30N 54°59' W 001°28'0 0.0
2018-Jul-09 23:00N 54°59' W 001°28'0 0.0
2018-Jul-09 22:30N 54°59' W 001°28'0 0.0
2018-Jul-09 21:57N 54°59' W 001°28'0 0.0
2018-Jul-09 21:30N 54°59' W 001°28'0 0.0
2018-Jul-09 21:00N 54°59' W 001°28'1 1.9
2018-Jul-09 20:30N 54°60' W 001°27'3 6.8
2018-Jul-09 20:00N 55°02' W 001°22'2 3.2
2018-Jul-09 19:30N 55°02' W 001°19'2 4.2
2018-Jul-09 19:00N 55°01' W 001°16'3 6.7
2018-Jul-09 18:30N 54°58' W 001°14'3 6.4
2018-Jul-09 18:00N 54°55' W 001°12'1 2.0
2018-Jul-09 17:30N 54°55' W 001°10'1 1.4
2018-Jul-09 17:00N 54°55' W 001°09'1 1.4
2018-Jul-09 16:30N 54°55' W 001°08'1 1.3
2018-Jul-09 16:00N 54°55' W 001°07'1 1.2
2018-Jul-09 15:30N 54°55' W 001°06'1 1.2
2018-Jul-09 15:00N 54°56' W 001°06'1 1.2
2018-Jul-09 14:30N 54°57' W 001°05'1 1.2
2018-Jul-09 14:00N 54°57' W 001°05'1 1.3
2018-Jul-09 13:30N 54°58' W 001°05'1 1.2
2018-Jul-09 13:00N 54°58' W 001°05'0 0.7
2018-Jul-09 12:29N 54°59' W 001°04'2 4.8
2018-Jul-09 12:00N 54°59' W 001°00'713.4
2018-Jul-09 11:30N 54°57' W 000°49'1515.4
2018-Jul-09 10:30N 54°52' W 000°24'815.8
2018-Jul-09 10:00N 54°49' W 000°11'816.1
2018-Jul-09 09:30N 54°46' E 000°02'816.2
2018-Jul-09 09:00N 54°43' E 000°14'816.4
2018-Jul-09 08:30N 54°39' E 000°27'816.5
2018-Jul-09 08:00N 54°36' E 000°40'7315.6
2018-Jul-09 03:18N 53°53' E 002°22'515.1
2018-Jul-09 02:59N 53°50' E 002°29'1114.9
2018-Jul-09 02:13N 53°42' E 002°42'315.5
2018-Jul-09 02:00N 53°39' E 002°45'1015.2
2018-Jul-09 01:21N 53°32' E 002°57'513.2
2018-Jul-09 00:59N 53°27' E 002°58'816.4
2018-Jul-09 00:30N 53°20' E 002°53'816.5
2018-Jul-09 00:00N 53°13' E 002°46'816.8
2018-Jul-08 23:30N 53°05' E 002°41'917.0
2018-Jul-08 23:00N 52°56' E 002°40'917.3
2018-Jul-08 22:30N 52°48' E 002°41'816.9
2018-Jul-08 22:00N 52°39' E 002°41'917.0
2018-Jul-08 21:30N 52°31' E 002°41'816.8
2018-Jul-08 21:00N 52°22' E 002°40'816.2
2018-Jul-08 20:30N 52°15' E 002°43'816.0
2018-Jul-08 20:00N 52°09' E 002°53'815.7
2018-Jul-08 19:30N 52°05' E 003°03'815.5
2018-Jul-08 19:00N 52°03' E 003°16'816.2
2018-Jul-08 18:30N 52°03' E 003°29'816.6
2018-Jul-08 18:00N 52°03' E 003°42'714.5
2018-Jul-08 17:30N 52°02' E 003°54'5 9.7
2018-Jul-08 17:00N 52°00' E 004°01'510.5
2018-Jul-08 16:30N 51°57' E 004°09'3 6.8
2018-Jul-08 16:00N 51°55' E 004°13'2 3.2
2018-Jul-08 15:30N 51°54' E 004°14'1 1.1
2018-Jul-08 14:58N 51°54' E 004°15'0 0.0
2018-Jul-08 14:28N 51°54' E 004°15'0 0.0
2018-Jul-08 13:58N 51°54' E 004°15'0 0.0
2018-Jul-08 13:28N 51°54' E 004°15'0 0.0
2018-Jul-08 12:58N 51°54' E 004°15'0 0.0
2018-Jul-08 12:28N 51°54' E 004°15'0 0.0
2018-Jul-08 11:58N 51°54' E 004°15'0 0.0
2018-Jul-08 11:28N 51°54' E 004°15'0 0.0
2018-Jul-08 10:58N 51°54' E 004°15'0 0.0
2018-Jul-08 10:28N 51°54' E 004°15'0 0.0
2018-Jul-08 09:58N 51°54' E 004°15'0 0.0
2018-Jul-08 09:28N 51°54' E 004°15'0 0.0
2018-Jul-08 08:58N 51°54' E 004°15'0 0.0
2018-Jul-08 08:28N 51°54' E 004°15'0 0.0
2018-Jul-08 07:58N 51°54' E 004°15'0 0.0
2018-Jul-08 07:28N 51°54' E 004°15'0 0.0
2018-Jul-08 06:58N 51°54' E 004°15'0 0.0
2018-Jul-08 06:28N 51°54' E 004°15'0 0.0
2018-Jul-08 05:58N 51°54' E 004°15'0 0.0
2018-Jul-08 05:28N 51°54' E 004°15'0 0.0
2018-Jul-08 04:58N 51°54' E 004°15'0 0.0
2018-Jul-08 04:28N 51°54' E 004°15'0 0.0
2018-Jul-08 03:58N 51°54' E 004°15'0 0.0
2018-Jul-08 03:28N 51°54' E 004°15'0 0.0
2018-Jul-08 02:58N 51°54' E 004°15'0 0.0
2018-Jul-08 02:28N 51°54' E 004°15'0 0.0
2018-Jul-08 01:58N 51°54' E 004°15'0 0.0
2018-Jul-08 01:28N 51°54' E 004°15'0 0.0
2018-Jul-08 00:58N 51°54' E 004°15'0 0.0
2018-Jul-08 00:28N 51°54' E 004°15'0 0.0
2018-Jul-07 23:58N 51°54' E 004°15'0 0.0
2018-Jul-07 23:28N 51°54' E 004°15'0 0.0
2018-Jul-07 22:58N 51°54' E 004°15'0 0.0
2018-Jul-07 22:28N 51°54' E 004°15'0 0.0
2018-Jul-07 21:58N 51°54' E 004°15'0 0.0
2018-Jul-07 21:28N 51°54' E 004°15'0 0.0
2018-Jul-07 20:58N 51°54' E 004°15'0 0.0
2018-Jul-07 20:28N 51°54' E 004°15'0 0.0
2018-Jul-07 19:58N 51°54' E 004°15'0 0.0
2018-Jul-07 19:28N 51°54' E 004°15'0 0.5
2018-Jul-07 19:00N 51°54' E 004°14'1 2.3
2018-Jul-07 18:30N 51°55' E 004°13'3 6.3
2018-Jul-07 18:00N 51°57' E 004°10'4 8.8
2018-Jul-07 17:30N 51°59' E 004°04'5 9.3
2018-Jul-07 17:00N 51°60' E 003°56'4 9.0
2018-Jul-07 16:30N 52°00' E 003°49'4 8.3
2018-Jul-07 16:00N 51°59' E 003°43'4 8.6
2018-Jul-07 15:30N 51°57' E 003°36'510.7
2018-Jul-07 15:00N 51°56' E 003°28'510.6
2018-Jul-07 14:30N 51°55' E 003°19'611.7
2018-Jul-07 14:00N 51°53' E 003°10'714.2
2018-Jul-07 13:30N 51°52' E 002°59'714.4
2018-Jul-07 13:00N 51°50' E 002°47'714.3
2018-Jul-07 12:30N 51°46' E 002°38'714.8
2018-Jul-07 12:00N 51°41' E 002°30'714.9
2018-Jul-07 11:30N 51°35' E 002°22'815.2
2018-Jul-07 11:00N 51°29' E 002°14'815.4
2018-Jul-07 10:30N 51°23' E 002°07'815.4
2018-Jul-07 10:00N 51°15' E 002°06'815.1
2018-Jul-07 09:30N 51°11' E 001°56'714.4
2018-Jul-07 09:00N 51°07' E 001°47'714.6
2018-Jul-07 08:30N 51°02' E 001°39'815.4
2018-Jul-07 08:00N 50°56' E 001°30'917.1
2018-Jul-07 07:30N 50°48' E 001°25'815.9
2018-Jul-07 07:00N 50°41' E 001°19'816.2
2018-Jul-07 06:30N 50°36' E 001°10'816.1
2018-Jul-07 06:00N 50°30' E 001°00'815.9
2018-Jul-07 05:30N 50°27' E 000°49'816.0
2018-Jul-07 05:00N 50°25' E 000°37'816.3
2018-Jul-07 04:30N 50°23' E 000°24'816.4
2018-Jul-07 04:00N 50°21' E 000°12'816.7
2018-Jul-07 03:30N 50°19' W 000°01'816.9
2018-Jul-07 03:00N 50°16' W 000°13'917.2
2018-Jul-07 02:30N 50°14' W 000°26'917.5
2018-Jul-07 02:00N 50°12' W 000°40'917.5
2018-Jul-07 01:30N 50°10' W 000°53'917.6
2018-Jul-07 01:00N 50°07' W 001°06'917.7
2018-Jul-07 00:30N 50°05' W 001°19'917.2
2018-Jul-07 00:00N 50°03' W 001°32'816.8
2018-Jul-06 23:30N 50°01' W 001°45'916.4
2018-Jul-06 22:59N 49°58' W 001°58'715.9
2018-Jul-06 22:30N 49°56' W 002°09'815.2
2018-Jul-06 22:00N 49°54' W 002°20'714.8
2018-Jul-06 21:30N 49°52' W 002°32'714.5
2018-Jul-06 21:00N 49°51' W 002°43'714.5
2018-Jul-06 20:30N 49°48' W 002°53'714.4
2018-Jul-06 20:00N 49°45' W 003°03'714.5
2018-Jul-06 19:30N 49°41' W 003°13'714.6
2018-Jul-06 19:00N 49°38' W 003°22'714.8
2018-Jul-06 18:30N 49°34' W 003°32'714.8
2018-Jul-06 18:00N 49°30' W 003°42'714.8
2018-Jul-06 17:30N 49°26' W 003°52'2614.7
2018-Jul-06 15:43N 49°13' W 004°26'414.5
2018-Jul-06 15:28N 49°11' W 004°31'1114.7
2018-Jul-06 14:43N 49°06' W 004°46'414.7
2018-Jul-06 14:28N 49°03' W 004°51'714.7
2018-Jul-06 14:00N 49°00' W 004°60'714.8
2018-Jul-06 13:30N 48°57' W 005°09'714.8
2018-Jul-06 13:00N 48°53' W 005°19'815.2
2018-Jul-06 12:30N 48°49' W 005°29'814.9
2018-Jul-06 12:00N 48°45' W 005°39'814.7
2018-Jul-06 11:28N 48°38' W 005°44'715.1
2018-Jul-06 11:00N 48°32' W 005°49'  
Track history (hours):
 
Tides and Currents Weather Stations Pressure Air Temp Water Temp Dewpoint Dewpoint Depression Visibility Wind Speed Wind Dir Waves Ship Positions

Perseus Leader

Last reported at 2018-Jul-15 20:43 UTC. Time now 2018-Jul-16 12:38 UTC.
Position N 37°33' W 009°46'.

Length 200 m; draft 7.9 m.

Type: Cargo ship. MMSI: 357170000.

Date/timePositionNaut miles runAvg speedWind from/ knotsBaromVisibWave heightAir tempDewpointWater temp
2018-Jul-15 20:43N 37°33' W 009°46'1216.8
2018-Jul-15 20:00N 37°45' W 009°50'1016.2
2018-Jul-15 19:22N 37°55' W 009°52'716.3
2018-Jul-15 18:55N 38°02' W 009°54'715.9
2018-Jul-15 18:29N 38°09' W 009°56'815.6
2018-Jul-15 18:01N 38°16' W 009°59'815.8
2018-Jul-15 17:30N 38°24' W 010°01'815.9
2018-Jul-15 17:00N 38°32' W 010°03'816.2
2018-Jul-15 16:29N 38°40' W 010°06'715.7
2018-Jul-15 16:00N 38°47' W 010°06'815.8
2018-Jul-15 15:30N 38°55' W 010°06'815.4
2018-Jul-15 15:00N 39°03' W 010°06'815.2
2018-Jul-15 14:30N 39°11' W 010°05'815.7
2018-Jul-15 14:00N 39°19' W 010°06'915.7
2018-Jul-15 13:27N 39°27' W 010°06'27915.5
2018-Jul-14 19:30N 44°05' W 009°31'815.9
2018-Jul-14 19:00N 44°12' W 009°25'816.0
2018-Jul-14 18:31N 44°19' W 009°20'1315.8
2018-Jul-14 17:40N 44°31' W 009°11'215.9
2018-Jul-14 17:30N 44°33' W 009°10'815.7
2018-Jul-14 17:00N 44°40' W 009°04'815.5
2018-Jul-14 16:30N 44°47' W 008°59'1215.8
2018-Jul-14 15:43N 44°58' W 008°51'316.1
2018-Jul-14 15:30N 45°01' W 008°49'13416.1
2018-Jul-14 07:11N 46°59' W 007°18'1515.8
2018-Jul-14 06:13N 47°13' W 007°07'315.7
2018-Jul-14 06:00N 47°16' W 007°05'815.6
2018-Jul-14 05:30N 47°22' W 006°60'815.3
2018-Jul-14 05:01N 47°29' W 006°55'1815.1
2018-Jul-14 03:48N 47°45' W 006°41'514.1
2018-Jul-14 03:25N 47°50' W 006°38'614.7
2018-Jul-14 03:00N 47°55' W 006°33'714.2
2018-Jul-14 02:30N 48°02' W 006°28'814.5
2018-Jul-14 01:58N 48°08' W 006°23'714.7
2018-Jul-14 01:28N 48°15' W 006°18'815.1
2018-Jul-14 00:56N 48°22' W 006°12'715.5
2018-Jul-14 00:31N 48°28' W 006°08'816.0
2018-Jul-13 23:59N 48°35' W 006°02'816.7
2018-Jul-13 23:30N 48°42' W 005°56'817.1
2018-Jul-13 23:01N 48°50' W 005°50'917.0
2018-Jul-13 22:30N 48°56' W 005°42'917.8
2018-Jul-13 22:00N 49°01' W 005°30'917.3
2018-Jul-13 21:30N 49°05' W 005°18'915.0
2018-Jul-13 20:56N 49°09' W 005°07'716.0
2018-Jul-13 20:31N 49°12' W 004°58'816.6
2018-Jul-13 20:01N 49°16' W 004°46'815.9
2018-Jul-13 19:31N 49°20' W 004°36'915.5
2018-Jul-13 18:57N 49°25' W 004°24'714.8
2018-Jul-13 18:30N 49°28' W 004°16'1514.4
2018-Jul-13 17:26N 49°36' W 003°55'614.4
2018-Jul-13 17:00N 49°39' W 003°47'714.7
2018-Jul-13 16:30N 49°43' W 003°38'815.4
2018-Jul-13 16:00N 49°47' W 003°28'816.4
2018-Jul-13 15:30N 49°51' W 003°17'917.0
2018-Jul-13 15:00N 49°55' W 003°05'917.8
2018-Jul-13 14:30N 49°58' W 002°51'1918.8
2018-Jul-13 13:31N 50°04' W 002°24'1019.6
2018-Jul-13 13:00N 50°07' W 002°10'1219.1
2018-Jul-13 12:22N 50°11' W 001°51'718.3
2018-Jul-13 12:00N 50°12' W 001°41'917.5
2018-Jul-13 11:31N 50°15' W 001°28'816.4
2018-Jul-13 11:01N 50°16' W 001°16'815.6
2018-Jul-13 10:30N 50°18' W 001°04'714.4
2018-Jul-13 10:00N 50°21' W 000°53'713.3
2018-Jul-13 09:30N 50°22' W 000°43'713.0
2018-Jul-13 09:00N 50°24' W 000°33'713.1
2018-Jul-13 08:30N 50°26' W 000°23'713.5
2018-Jul-13 08:00N 50°27' W 000°13'714.0
2018-Jul-13 07:30N 50°29' W 000°02'714.5
2018-Jul-13 07:00N 50°31' E 000°09'815.2
2018-Jul-13 06:30N 50°33' E 000°20'816.6
2018-Jul-13 06:00N 50°36' E 000°33'917.5
2018-Jul-13 05:30N 50°40' E 000°44'917.7
2018-Jul-13 05:00N 50°45' E 000°56'917.7
2018-Jul-13 04:30N 50°50' E 001°08'917.5
2018-Jul-13 04:00N 50°55' E 001°18'917.2
2018-Jul-13 03:30N 51°02' E 001°27'815.7
2018-Jul-13 03:00N 51°08' E 001°36'714.7
2018-Jul-13 02:30N 51°13' E 001°44'714.4
2018-Jul-13 02:00N 51°18' E 001°51'714.1
2018-Jul-13 01:30N 51°24' E 001°57'713.3
2018-Jul-13 01:01N 51°23' E 002°08'714.6
2018-Jul-13 00:30N 51°21' E 002°19'713.9
2018-Jul-13 00:00N 51°23' E 002°29'611.8
2018-Jul-12 23:30N 51°27' E 002°37'2 3.2
2018-Jul-12 22:59N 51°26' E 002°39'0 0.1
2018-Jul-12 22:29N 51°26' E 002°39'0 0.0
2018-Jul-12 21:59N 51°26' E 002°39'0 0.0
2018-Jul-12 21:26N 51°26' E 002°39'0 0.0
2018-Jul-12 20:59N 51°26' E 002°39'0 0.0
2018-Jul-12 20:29N 51°26' E 002°39'0 0.0
2018-Jul-12 19:59N 51°26' E 002°39'0 0.0
2018-Jul-12 19:29N 51°26' E 002°39'0 0.0
2018-Jul-12 18:59N 51°26' E 002°39'0 0.0
2018-Jul-12 18:29N 51°26' E 002°39'0 0.0
2018-Jul-12 17:59N 51°26' E 002°39'0 0.0
2018-Jul-12 17:29N 51°26' E 002°39'0 0.0
2018-Jul-12 16:59N 51°26' E 002°39'0 0.0
2018-Jul-12 16:29N 51°26' E 002°39'0 0.0
2018-Jul-12 15:59N 51°26' E 002°39'0 0.1
2018-Jul-12 15:29N 51°26' E 002°39'0 0.2
2018-Jul-12 14:59N 51°26' E 002°39'0 0.0
2018-Jul-12 14:29N 51°26' E 002°39'0 0.0
2018-Jul-12 13:59N 51°26' E 002°39'0 0.0
2018-Jul-12 13:26N 51°26' E 002°39'0 0.0
2018-Jul-12 12:59N 51°26' E 002°39'0 0.0
2018-Jul-12 12:29N 51°26' E 002°39'0 0.0
2018-Jul-12 11:59N 51°26' E 002°39'0 0.2
2018-Jul-12 11:26N 51°26' E 002°39'0 0.2
2018-Jul-12 10:59N 51°26' E 002°39'0 0.1
2018-Jul-12 10:31N 51°26' E 002°39'0 0.1
2018-Jul-12 10:00N 51°26' E 002°39'0 0.0
2018-Jul-12 09:30N 51°26' E 002°39'0 0.1
2018-Jul-12 09:00N 51°26' E 002°39'0 0.0
2018-Jul-12 08:30N 51°26' E 002°39'0 0.0
2018-Jul-12 08:00N 51°26' E 002°39'0 0.0
2018-Jul-12 07:29N 51°26' E 002°39'0 0.0
2018-Jul-12 07:00N 51°26' E 002°39'0 0.0
2018-Jul-12 06:30N 51°26' E 002°39'0 0.2
2018-Jul-12 06:01N 51°26' E 002°39'3 6.3
2018-Jul-12 05:31N 51°23' E 002°42'510.5
2018-Jul-12 05:00N 51°22' E 002°50'713.9
2018-Jul-12 04:31N 51°24' E 003°01'714.4
2018-Jul-12 04:00N 51°24' E 003°12'817.2
2018-Jul-12 03:31N 51°25' E 003°26'611.7
2018-Jul-12 03:00N 51°26' E 003°35'5 9.4
2018-Jul-12 02:30N 51°25' E 003°42'611.4
2018-Jul-12 02:01N 51°21' E 003°49'612.3
2018-Jul-12 01:31N 51°24' E 003°57'3 6.1
2018-Jul-12 01:01N 51°24' E 004°02'5 9.2
2018-Jul-12 00:31N 51°23' E 004°09'4 7.6
2018-Jul-12 00:01N 51°21' E 004°15'4 7.4
2018-Jul-11 23:31N 51°18' E 004°16'1 1.6
2018-Jul-11 22:57N 51°17' E 004°15'0 0.0
2018-Jul-11 22:30N 51°17' E 004°15'0 0.2
2018-Jul-11 22:00N 51°17' E 004°15'1 2.0
2018-Jul-11 21:29N 51°16' E 004°13'0 0.0
2018-Jul-11 20:59N 51°16' E 004°13'0 0.0
2018-Jul-11 20:29N 51°16' E 004°13'0 0.0
2018-Jul-11 19:59N 51°16' E 004°13'0 0.0
2018-Jul-11 19:29N 51°16' E 004°13'0 0.0
2018-Jul-11 18:59N 51°16' E 004°13'0 0.0
2018-Jul-11 18:29N 51°16' E 004°13'0 0.0
2018-Jul-11 17:59N 51°16' E 004°13'0 0.0
2018-Jul-11 17:29N 51°16' E 004°13'0 0.0
2018-Jul-11 16:59N 51°16' E 004°13'0 0.0
2018-Jul-11 16:29N 51°16' E 004°13'0 0.0
2018-Jul-11 15:59N 51°16' E 004°13'0 0.0
2018-Jul-11 15:29N 51°16' E 004°13'0 0.0
2018-Jul-11 14:59N 51°16' E 004°13'0 0.0
2018-Jul-11 14:26N 51°16' E 004°13'0 0.0
2018-Jul-11 13:59N 51°16' E 004°13'0 0.0
2018-Jul-11 13:26N 51°16' E 004°13'0 0.0
2018-Jul-11 12:59N 51°16' E 004°13'0 0.0
2018-Jul-11 12:29N 51°16' E 004°13'0 0.1
2018-Jul-11 12:00N 51°16' E 004°13'2 3.5
2018-Jul-11 11:31N 51°16' E 004°16'0 0.8
2018-Jul-11 11:00N 51°16' E 004°17'0 0.0
2018-Jul-11 10:30N 51°16' E 004°17'1 1.1
2018-Jul-11 10:00N 51°16' E 004°17'2 3.5
2018-Jul-11 09:30N 51°18' E 004°18'5 9.4
2018-Jul-11 09:00N 51°21' E 004°14'4 8.6
2018-Jul-11 08:30N 51°22' E 004°07'611.3
2018-Jul-11 08:00N 51°26' E 004°01'611.6
2018-Jul-11 07:30N 51°22' E 003°54'611.2
2018-Jul-11 07:00N 51°22' E 003°45'611.3
2018-Jul-11 06:30N 51°26' E 003°40'5 9.7
2018-Jul-11 06:00N 51°25' E 003°32'5 9.4
2018-Jul-11 05:30N 51°25' E 003°25'713.6
2018-Jul-11 05:00N 51°24' E 003°14'713.5
2018-Jul-11 04:30N 51°24' E 003°03'5 9.1
2018-Jul-11 04:00N 51°29' E 003°02'816.0
2018-Jul-11 03:30N 51°35' E 003°10'714.6
2018-Jul-11 03:00N 51°43' E 003°13'4 7.8
2018-Jul-11 02:30N 51°46' E 003°11'713.1
2018-Jul-11 02:00N 51°51' E 003°04'1116.2
2018-Jul-11 01:19N 51°51' E 002°46'515.8
2018-Jul-11 01:00N 51°54' E 002°40'914.6
2018-Jul-11 00:22N 52°03' E 002°38'1315.0
2018-Jul-10 23:29N 52°17' E 002°38'1015.4
2018-Jul-10 22:49N 52°27' E 002°37'515.8
2018-Jul-10 22:29N 52°32' E 002°37'815.8
2018-Jul-10 22:01N 52°40' E 002°37'816.2
2018-Jul-10 21:30N 52°48' E 002°38'916.7
2018-Jul-10 20:59N 52°56' E 002°38'1016.7
2018-Jul-10 20:24N 53°06' E 002°39'11614.6
2018-Jul-10 12:27N 54°37' E 000°37'715.9
2018-Jul-10 12:01N 54°41' E 000°27'815.7
2018-Jul-10 11:30N 54°43' E 000°14'815.5
2018-Jul-10 11:00N 54°46' E 000°02'815.5
2018-Jul-10 10:31N 54°49' W 000°11'815.4
2018-Jul-10 10:01N 54°52' W 000°24'2315.0
2018-Jul-10 08:27N 54°60' W 001°02'614.5
2018-Jul-10 08:00N 55°01' W 001°13'510.6
2018-Jul-10 07:30N 55°01' W 001°22'3 5.9
2018-Jul-10 07:00N 54°60' W 001°27'1 1.2
2018-Jul-10 06:21N 54°59' W 001°28'0 0.0
2018-Jul-10 06:00N 54°59' W 001°28'0 0.0
2018-Jul-10 05:30N 54°59' W 001°28'0 0.0
2018-Jul-10 05:00N 54°59' W 001°28'0 0.0
2018-Jul-10 04:30N 54°59' W 001°28'0 0.0
2018-Jul-10 03:57N 54°59' W 001°28'0 0.0
2018-Jul-10 03:30N 54°59' W 001°28'0 0.0
2018-Jul-10 03:00N 54°59' W 001°28'0 0.0
2018-Jul-10 02:27N 54°59' W 001°28'0 0.0
2018-Jul-10 02:00N 54°59' W 001°28'0 0.0
2018-Jul-10 01:30N 54°59' W 001°28'0 0.0
2018-Jul-10 01:00N 54°59' W 001°28'0 0.0
2018-Jul-10 00:00N 54°59' W 001°28'0 0.0
2018-Jul-09 23:30N 54°59' W 001°28'0 0.0
2018-Jul-09 23:00N 54°59' W 001°28'0 0.0
2018-Jul-09 22:30N 54°59' W 001°28'0 0.0
2018-Jul-09 21:57N 54°59' W 001°28'0 0.0
2018-Jul-09 21:30N 54°59' W 001°28'0 0.0
2018-Jul-09 21:00N 54°59' W 001°28'1 1.9
2018-Jul-09 20:30N 54°60' W 001°27'3 6.8
2018-Jul-09 20:00N 55°02' W 001°22'2 3.2
2018-Jul-09 19:30N 55°02' W 001°19'2 4.2
2018-Jul-09 19:00N 55°01' W 001°16'3 6.7
2018-Jul-09 18:30N 54°58' W 001°14'3 6.4
2018-Jul-09 18:00N 54°55' W 001°12'1 2.0
2018-Jul-09 17:30N 54°55' W 001°10'1 1.4
2018-Jul-09 17:00N 54°55' W 001°09'1 1.4
2018-Jul-09 16:30N 54°55' W 001°08'1 1.3
2018-Jul-09 16:00N 54°55' W 001°07'1 1.2
2018-Jul-09 15:30N 54°55' W 001°06'1 1.2
2018-Jul-09 15:00N 54°56' W 001°06'1 1.2
2018-Jul-09 14:30N 54°57' W 001°05'1 1.2
2018-Jul-09 14:00N 54°57' W 001°05'1 1.3
2018-Jul-09 13:30N 54°58' W 001°05'1 1.2
2018-Jul-09 13:00N 54°58' W 001°05'0 0.7
2018-Jul-09 12:29N 54°59' W 001°04'2 4.8
2018-Jul-09 12:00N 54°59' W 001°00'713.4
2018-Jul-09 11:30N 54°57' W 000°49'1515.4
2018-Jul-09 10:30N 54°52' W 000°24'815.8
2018-Jul-09 10:00N 54°49' W 000°11'816.1
2018-Jul-09 09:30N 54°46' E 000°02'816.2
2018-Jul-09 09:00N 54°43' E 000°14'816.4
2018-Jul-09 08:30N 54°39' E 000°27'816.5
2018-Jul-09 08:00N 54°36' E 000°40'7315.6
2018-Jul-09 03:18N 53°53' E 002°22'515.1
2018-Jul-09 02:59N 53°50' E 002°29'1114.9
2018-Jul-09 02:13N 53°42' E 002°42'315.5
2018-Jul-09 02:00N 53°39' E 002°45'1015.2
2018-Jul-09 01:21N 53°32' E 002°57'513.2
2018-Jul-09 00:59N 53°27' E 002°58'816.4
2018-Jul-09 00:30N 53°20' E 002°53'816.5
2018-Jul-09 00:00N 53°13' E 002°46'816.8
2018-Jul-08 23:30N 53°05' E 002°41'917.0
2018-Jul-08 23:00N 52°56' E 002°40'917.3
2018-Jul-08 22:30N 52°48' E 002°41'816.9
2018-Jul-08 22:00N 52°39' E 002°41'917.0
2018-Jul-08 21:30N 52°31' E 002°41'816.8
2018-Jul-08 21:00N 52°22' E 002°40'816.2
2018-Jul-08 20:30N 52°15' E 002°43'816.0
2018-Jul-08 20:00N 52°09' E 002°53'815.7
2018-Jul-08 19:30N 52°05' E 003°03'815.5
2018-Jul-08 19:00N 52°03' E 003°16'816.2
2018-Jul-08 18:30N 52°03' E 003°29'816.6
2018-Jul-08 18:00N 52°03' E 003°42'714.5
2018-Jul-08 17:30N 52°02' E 003°54'5 9.7
2018-Jul-08 17:00N 52°00' E 004°01'510.5
2018-Jul-08 16:30N 51°57' E 004°09'3 6.8
2018-Jul-08 16:00N 51°55' E 004°13'2 3.2
2018-Jul-08 15:30N 51°54' E 004°14'1 1.1
2018-Jul-08 14:58N 51°54' E 004°15'0 0.0
2018-Jul-08 14:28N 51°54' E 004°15'0 0.0
2018-Jul-08 13:58N 51°54' E 004°15'0 0.0
2018-Jul-08 13:28N 51°54' E 004°15'0 0.0
2018-Jul-08 12:58N 51°54' E 004°15'0 0.0
2018-Jul-08 12:28N 51°54' E 004°15'0 0.0
2018-Jul-08 11:58N 51°54' E 004°15'0 0.0
2018-Jul-08 11:28N 51°54' E 004°15'0 0.0
2018-Jul-08 10:58N 51°54' E 004°15'0 0.0
2018-Jul-08 10:28N 51°54' E 004°15'0 0.0
2018-Jul-08 09:58N 51°54' E 004°15'0 0.0
2018-Jul-08 09:28N 51°54' E 004°15'0 0.0
2018-Jul-08 08:58N 51°54' E 004°15'0 0.0
2018-Jul-08 08:28N 51°54' E 004°15'0 0.0
2018-Jul-08 07:58N 51°54' E 004°15'0 0.0
2018-Jul-08 07:28N 51°54' E 004°15'0 0.0
2018-Jul-08 06:58N 51°54' E 004°15'0 0.0
2018-Jul-08 06:28N 51°54' E 004°15'0 0.0
2018-Jul-08 05:58N 51°54' E 004°15'0 0.0
2018-Jul-08 05:28N 51°54' E 004°15'0 0.0
2018-Jul-08 04:58N 51°54' E 004°15'0 0.0
2018-Jul-08 04:28N 51°54' E 004°15'0 0.0
2018-Jul-08 03:58N 51°54' E 004°15'0 0.0
2018-Jul-08 03:28N 51°54' E 004°15'0 0.0
2018-Jul-08 02:58N 51°54' E 004°15'0 0.0
2018-Jul-08 02:28N 51°54' E 004°15'0 0.0
2018-Jul-08 01:58N 51°54' E 004°15'0 0.0
2018-Jul-08 01:28N 51°54' E 004°15'0 0.0
2018-Jul-08 00:58N 51°54' E 004°15'0 0.0
2018-Jul-08 00:28N 51°54' E 004°15'0 0.0
2018-Jul-07 23:58N 51°54' E 004°15'0 0.0
2018-Jul-07 23:28N 51°54' E 004°15'0 0.0
2018-Jul-07 22:58N 51°54' E 004°15'0 0.0
2018-Jul-07 22:28N 51°54' E 004°15'0 0.0
2018-Jul-07 21:58N 51°54' E 004°15'0 0.0
2018-Jul-07 21:28N 51°54' E 004°15'0 0.0
2018-Jul-07 20:58N 51°54' E 004°15'0 0.0
2018-Jul-07 20:28N 51°54' E 004°15'0 0.0
2018-Jul-07 19:58N 51°54' E 004°15'0 0.0
2018-Jul-07 19:28N 51°54' E 004°15'0 0.5
2018-Jul-07 19:00N 51°54' E 004°14'1 2.3
2018-Jul-07 18:30N 51°55' E 004°13'3 6.3
2018-Jul-07 18:00N 51°57' E 004°10'4 8.8
2018-Jul-07 17:30N 51°59' E 004°04'5 9.3
2018-Jul-07 17:00N 51°60' E 003°56'4 9.0
2018-Jul-07 16:30N 52°00' E 003°49'4 8.3
2018-Jul-07 16:00N 51°59' E 003°43'4 8.6
2018-Jul-07 15:30N 51°57' E 003°36'510.7
2018-Jul-07 15:00N 51°56' E 003°28'510.6
2018-Jul-07 14:30N 51°55' E 003°19'611.7
2018-Jul-07 14:00N 51°53' E 003°10'714.2
2018-Jul-07 13:30N 51°52' E 002°59'714.4
2018-Jul-07 13:00N 51°50' E 002°47'714.3
2018-Jul-07 12:30N 51°46' E 002°38'714.8
2018-Jul-07 12:00N 51°41' E 002°30'714.9
2018-Jul-07 11:30N 51°35' E 002°22'815.2
2018-Jul-07 11:00N 51°29' E 002°14'815.4
2018-Jul-07 10:30N 51°23' E 002°07'815.4
2018-Jul-07 10:00N 51°15' E 002°06'815.1
2018-Jul-07 09:30N 51°11' E 001°56'714.4
2018-Jul-07 09:00N 51°07' E 001°47'714.6
2018-Jul-07 08:30N 51°02' E 001°39'815.4
2018-Jul-07 08:00N 50°56' E 001°30'917.1
2018-Jul-07 07:30N 50°48' E 001°25'815.9
2018-Jul-07 07:00N 50°41' E 001°19'816.2
2018-Jul-07 06:30N 50°36' E 001°10'816.1
2018-Jul-07 06:00N 50°30' E 001°00'815.9
2018-Jul-07 05:30N 50°27' E 000°49'816.0
2018-Jul-07 05:00N 50°25' E 000°37'816.3
2018-Jul-07 04:30N 50°23' E 000°24'816.4
2018-Jul-07 04:00N 50°21' E 000°12'816.7
2018-Jul-07 03:30N 50°19' W 000°01'816.9
2018-Jul-07 03:00N 50°16' W 000°13'917.2
2018-Jul-07 02:30N 50°14' W 000°26'917.5
2018-Jul-07 02:00N 50°12' W 000°40'917.5
2018-Jul-07 01:30N 50°10' W 000°53'917.6
2018-Jul-07 01:00N 50°07' W 001°06'917.7
2018-Jul-07 00:30N 50°05' W 001°19'917.2
2018-Jul-07 00:00N 50°03' W 001°32'816.8
2018-Jul-06 23:30N 50°01' W 001°45'916.4
2018-Jul-06 22:59N 49°58' W 001°58'715.9
2018-Jul-06 22:30N 49°56' W 002°09'815.2
2018-Jul-06 22:00N 49°54' W 002°20'714.8
2018-Jul-06 21:30N 49°52' W 002°32'714.5
2018-Jul-06 21:00N 49°51' W 002°43'714.5
2018-Jul-06 20:30N 49°48' W 002°53'714.4
2018-Jul-06 20:00N 49°45' W 003°03'714.5
2018-Jul-06 19:30N 49°41' W 003°13'714.6
2018-Jul-06 19:00N 49°38' W 003°22'714.8
2018-Jul-06 18:30N 49°34' W 003°32'714.8
2018-Jul-06 18:00N 49°30' W 003°42'714.8
2018-Jul-06 17:30N 49°26' W 003°52'2614.7
2018-Jul-06 15:43N 49°13' W 004°26'414.5
2018-Jul-06 15:28N 49°11' W 004°31'1114.7
2018-Jul-06 14:43N 49°06' W 004°46'414.7
2018-Jul-06 14:28N 49°03' W 004°51'714.7
2018-Jul-06 14:00N 49°00' W 004°60'714.8
2018-Jul-06 13:30N 48°57' W 005°09'714.8
2018-Jul-06 13:00N 48°53' W 005°19'815.2
2018-Jul-06 12:30N 48°49' W 005°29'814.9
2018-Jul-06 12:00N 48°45' W 005°39'814.7
2018-Jul-06 11:28N 48°38' W 005°44'715.1
2018-Jul-06 11:00N 48°32' W 005°49'  

Dump ship's entire track history